Meteorología y climatología de Navarra
Datos de la estación - Meteo Navarra

Estación de Doneztebe-Santesteban GN

Altitud 125 m.


Datos desde el 30/06/2020 hasta el 01/07/2020 en horario solar
Los datos son PROVISIONALES

Anterior Página 1 de 1 Siguiente Descargar: Formato para Excel 2000 o superior   Formato csv   Formato para OpenOffice Calc
Fecha Temperatura Humedad relativa Radiación global Insolación Precipitación Vel. viento 10 m Vel. viento 10 m Dir. viento 10 m
ºC % W/m² s l/m² m/s km/h º
30/06/2020 0:00 16.5 88 0.0 0 0.0 1.5 5.5 344
30/06/2020 0:10 16.4 88 0.0 0 0.0 1.3 4.5 329
30/06/2020 0:20 16.3 89 0.0 0 0.0 1.3 4.6 342
30/06/2020 0:30 16.1 89 0.0 0 0.0 1.2 4.4 340
30/06/2020 0:40 15.8 90 0.0 0 0.0 1.5 5.3 351
30/06/2020 0:50 15.5 92 0.0 0 0.0 1.2 4.5 326
30/06/2020 1:00 15.3 92 0.0 0 0.0 0.2 0.8 360
30/06/2020 1:10 15.1 92 0.0 0 0.0 0.0 0.0 0
30/06/2020 1:20 15.1 93 0.0 0 0.0 0.5 1.8 8
30/06/2020 1:30 15.2 94 0.0 0 0.0 0.1 0.3 55
30/06/2020 1:40 15.2 94 0.0 0 0.0 0.3 1.0 340
30/06/2020 1:50 15.2 94 0.0 0 0.0 0.5 1.9 349
30/06/2020 2:00 15.1 94 0.0 0 0.0 1.2 4.5 347
30/06/2020 2:10 15.1 94 0.0 0 0.0 1.2 4.2 352
30/06/2020 2:20 15.0 94 0.0 0 0.0 0.8 2.9 345
30/06/2020 2:30 14.9 94 0.0 0 0.0 1.0 3.7 343
30/06/2020 2:40 14.8 94 0.0 0 0.0 0.8 2.9 327
30/06/2020 2:50 14.5 95 0.0 0 0.0 1.1 4.0 352
30/06/2020 3:00 14.5 95 0.0 0 0.0 0.0 0.1 37
30/06/2020 3:10 14.3 95 0.0 0 0.0 0.1 0.5 285
30/06/2020 3:20 14.2 95 0.0 0 0.0 0.0 0.0 285
30/06/2020 3:30 14.2 95 0.0 0 0.0 0.4 1.4 308
30/06/2020 3:40 13.9 96 0.0 0 0.0 0.6 2.0 351
30/06/2020 3:50 14.0 96 0.0 0 0.0 0.1 0.5 331
30/06/2020 4:00 14.0 97 0.0 0 0.0 0.3 0.9 295
30/06/2020 4:10 14.1 97 0.0 0 0.0 0.5 1.7 277
30/06/2020 4:20 14.0 97 0.0 0 0.0 0.6 2.1 300
30/06/2020 4:30 14.0 97 0.0 0 0.0 0.3 1.1 309
30/06/2020 4:40 14.0 97 0.0 0 0.0 0.3 1.2 302
30/06/2020 4:50 14.0 97 0.0 0 0.0 0.5 1.6 290
30/06/2020 5:00 14.1 96 13.9 0 0.0 0.5 1.7 299
30/06/2020 5:10 14.2 96 24.7 0 0.0 0.2 0.8 307
30/06/2020 5:20 14.3 96 32.1 0 0.0 0.0 0.0 0
30/06/2020 5:30 14.4 96 45.6 0 0.0 0.0 0.0 0
30/06/2020 5:40 14.6 96 66.2 0 0.0 0.0 0.0 0
30/06/2020 5:50 14.7 96 91.3 0 0.0 0.0 0.0 0
30/06/2020 6:00 14.9 96 111.3 90 0.0 0.1 0.2 114
30/06/2020 6:10 15.4 96 160.9 600 0.0 0.5 1.8 113
30/06/2020 6:20 15.7 94 183.5 570 0.0 0.9 3.1 111
30/06/2020 6:30 16.1 91 224.6 418 0.0 0.7 2.3 102
30/06/2020 6:40 16.1 89 303.2 600 0.0 0.3 1.2 324
30/06/2020 6:50 16.7 87 334.0 600 0.0 0.4 1.3 84
30/06/2020 7:00 17.2 84 363.3 600 0.0 0.3 1.2 163
30/06/2020 7:10 17.8 83 394.8 600 0.0 0.6 2.1 102
30/06/2020 7:20 19.1 77 423.9 600 0.0 0.9 3.2 124
30/06/2020 7:30 19.3 75 454.2 600 0.0 0.6 2.1 135
30/06/2020 7:40 19.2 75 484.0 600 0.0 0.9 3.2 123
30/06/2020 7:50 20.2 70 514.3 600 0.0 0.5 1.8 121
30/06/2020 8:00 20.2 70 542.7 600 0.0 0.6 2.2 71
30/06/2020 8:10 20.1 70 572.8 600 0.0 1.0 3.5 132
30/06/2020 8:20 20.5 69 600.6 600 0.0 0.5 1.7 130
30/06/2020 8:30 20.7 68 625.9 600 0.0 0.7 2.6 125
30/06/2020 8:40 21.1 65 651.2 600 0.0 0.5 1.8 107
30/06/2020 8:50 21.3 65 673.5 600 0.0 0.7 2.4 89
30/06/2020 9:00 21.1 63 694.9 600 0.0 0.4 1.4 231
30/06/2020 9:10 21.4 63 716.9 600 0.0 0.6 2.0 66
30/06/2020 9:20 21.7 65 740.7 600 0.0 1.2 4.1 64
30/06/2020 9:30 22.4 64 757.8 600 0.0 0.9 3.2 106
30/06/2020 9:40 22.7 60 779.5 600 0.0 0.6 2.3 100
30/06/2020 9:50 23.0 60 797.2 600 0.0 0.8 2.8 156
30/06/2020 10:00 23.4 61 815.0 600 0.0 0.7 2.6 347
30/06/2020 10:10 23.6 65 832.0 600 0.0 0.9 3.2 350
30/06/2020 10:20 24.0 63 846.0 600 0.0 0.4 1.3 37
30/06/2020 10:30 24.7 60 860.0 600 0.0 0.7 2.4 178
30/06/2020 10:40 25.0 59 875.0 600 0.0 0.9 3.1 150
30/06/2020 10:50 25.4 57 887.0 600 0.0 0.7 2.5 134
30/06/2020 11:00 25.3 55 902.0 600 0.0 1.5 5.3 22
30/06/2020 11:10 25.5 55 915.0 600 0.0 1.1 3.8 323
30/06/2020 11:20 26.2 52 923.0 600 0.0 1.2 4.4 121
30/06/2020 11:30 26.3 47 929.0 600 0.0 0.4 1.4 266
30/06/2020 11:40 26.4 52 935.0 600 0.0 1.1 3.9 351
30/06/2020 11:50 26.7 55 941.0 600 0.0 2.2 8.0 335
30/06/2020 12:00 26.6 57 943.0 600 0.0 2.5 9.1 331
30/06/2020 12:10 26.6 57 946.0 600 0.0 2.7 9.8 350
30/06/2020 12:20 26.5 59 947.0 600 0.0 2.8 10.2 339
30/06/2020 12:30 26.7 60 944.0 600 0.0 3.1 11.1 351
30/06/2020 12:40 26.7 60 938.0 600 0.0 3.1 11.2 351
30/06/2020 12:50 26.8 60 933.0 600 0.0 2.6 9.4 347
30/06/2020 13:00 26.8 60 926.0 600 0.0 3.0 10.7 339
30/06/2020 13:10 26.7 61 918.0 600 0.0 3.0 10.7 351
30/06/2020 13:20 27.0 60 910.0 600 0.0 2.7 9.9 353
30/06/2020 13:30 27.0 61 898.0 600 0.0 3.1 11.3 340
30/06/2020 13:40 27.1 60 887.0 600 0.0 3.5 12.5 335
30/06/2020 13:50 27.2 60 873.0 600 0.0 3.1 11.0 346
30/06/2020 14:00 26.9 61 860.0 600 0.0 3.8 13.8 343
30/06/2020 14:10 27.1 60 846.0 600 0.0 3.1 11.1 341
30/06/2020 14:20 27.2 59 826.0 600 0.0 3.1 11.1 340
30/06/2020 14:30 27.1 60 808.0 600 0.0 3.4 12.1 339
30/06/2020 14:40 27.3 59 790.9 600 0.0 3.2 11.5 343
30/06/2020 14:50 27.3 58 769.4 600 0.0 3.0 10.9 342
30/06/2020 15:00 27.4 59 750.7 600 0.0 3.3 11.8 338
30/06/2020 15:10 27.3 59 728.0 600 0.0 3.0 10.7 348
30/06/2020 15:20 27.5 58 704.5 600 0.0 2.8 10.1 341
30/06/2020 15:30 27.4 57 682.5 600 0.0 3.7 13.3 352
30/06/2020 15:40 27.2 58 657.2 600 0.0 3.1 11.3 354
30/06/2020 15:50 27.4 57 633.2 600 0.0 3.2 11.4 341
30/06/2020 16:00 27.3 57 606.9 600 0.0 3.0 10.8 337
30/06/2020 16:10 27.3 56 581.0 600 0.0 2.9 10.4 338
30/06/2020 16:20 27.3 57 551.5 600 0.0 3.3 11.8 336
30/06/2020 16:30 27.2 57 516.1 600 0.0 2.8 10.2 340
30/06/2020 16:40 27.0 57 493.0 600 0.0 2.7 9.5 336
30/06/2020 16:50 26.9 57 456.5 600 0.0 2.8 10.1 346
30/06/2020 17:00 26.7 57 427.5 600 0.0 2.7 9.7 343
30/06/2020 17:10 26.7 57 403.3 600 0.0 2.8 10.1 336
30/06/2020 17:20 26.6 58 369.6 600 0.0 2.5 8.8 334
30/06/2020 17:30 26.3 59 339.0 600 0.0 3.2 11.5 347
30/06/2020 17:40 26.2 60 308.8 600 0.0 2.6 9.2 339
30/06/2020 17:50 26.0 61 293.6 600 0.0 2.8 10.0 343
30/06/2020 18:00 25.9 62 230.6 424 0.0 2.8 10.2 336
30/06/2020 18:10 25.5 63 149.0 180 0.0 2.8 10.2 341
30/06/2020 18:20 25.7 63 180.3 380 0.0 0.6 2.3 320
30/06/2020 18:30 25.8 63 154.4 474 0.0 1.2 4.4 340
30/06/2020 18:40 25.8 63 171.4 600 0.0 1.3 4.8 10
30/06/2020 18:50 25.7 65 153.6 600 0.0 1.3 4.5 323
30/06/2020 19:00 25.3 65 96.7 372 0.0 1.6 5.7 332
30/06/2020 19:10 24.6 68 50.9 0 0.0 1.5 5.5 316
30/06/2020 19:20 24.3 69 39.6 10 0.0 1.6 5.7 334
30/06/2020 19:30 24.1 71 23.9 0 0.0 1.4 5.0 304
30/06/2020 19:40 24.0 71 18.1 0 0.0 0.8 3.0 328
30/06/2020 19:50 23.7 75 4.4 0 0.0 1.0 3.5 312
30/06/2020 20:00 23.6 75 0.0 0 0.0 1.3 4.7 48
30/06/2020 20:10 23.1 77 0.0 0 0.0 2.7 9.8 10
30/06/2020 20:20 22.4 78 0.0 0 0.0 2.8 9.9 344
30/06/2020 20:30 21.8 82 0.0 0 0.0 2.1 7.5 337
30/06/2020 20:40 21.3 85 0.0 0 0.0 1.3 4.8 355
30/06/2020 20:50 21.0 88 0.0 0 0.0 0.3 1.1 285
30/06/2020 21:00 20.6 90 0.0 0 0.0 0.6 2.1 291
30/06/2020 21:10 20.4 91 0.0 0 0.0 1.4 5.1 333
30/06/2020 21:20 20.3 91 0.0 0 0.0 2.0 7.2 334
30/06/2020 21:30 20.2 91 0.0 0 0.0 1.9 6.7 330
30/06/2020 21:40 20.2 89 0.0 0 0.0 2.0 7.3 339
30/06/2020 21:50 20.0 89 0.0 0 0.0 2.4 8.7 347
30/06/2020 22:00 20.0 88 0.0 0 0.0 2.3 8.2 344
30/06/2020 22:10 19.9 88 0.0 0 0.0 1.8 6.6 357
30/06/2020 22:20 19.8 87 0.0 0 0.0 2.1 7.5 350
30/06/2020 22:30 19.7 87 0.0 0 0.0 2.2 7.8 26
30/06/2020 22:40 19.6 87 0.0 0 0.0 2.2 7.9 354
30/06/2020 22:50 19.4 88 0.0 0 0.0 2.3 8.4 344
30/06/2020 23:00 19.2 88 0.0 0 0.0 2.2 8.0 348
30/06/2020 23:10 19.2 90 0.0 0 0.0 1.0 3.6 9
30/06/2020 23:20 19.0 88 0.0 0 0.0 1.8 6.6 333
30/06/2020 23:30 18.9 90 0.0 0 0.0 0.5 1.7 11
30/06/2020 23:40 18.5 91 0.0 0 0.0 1.0 3.5 309
30/06/2020 23:50 18.3 92 0.0 0 0.0 0.3 1.1 323
Anterior Página 1 de 1 Siguiente

NOTA: Tipo de datos según el color:
   - Valores diarios o 10 minutos correctos
   - Valores diarios calculados a partir de un número de datos 10 minutos menor que 144 y mayor que 120, o de un número de datos semihorarios menor que 48 y mayor que 40 (caso de las estaciones de INTIA y del Ministerio)
   - Valores diez minutos estimados


Contacto        Enlaces        Aviso legal